Terminal Aerodrome Forecast
Issued by NWS Tampa Bay Area, FL

Home | Current Version | Previous Version | Text Only | Print | Product List | Glossary On
Versions: 1 2 3 4 5 6 7 8 9 10 11 12 13 14 15 16 17 18
000
FTUS42 KTBW 032325
TAFFMY
TAF
KFMY 032325Z 0400/0424 30008KT P6SM FEW060 SCT250
     FM040300 VRB04KT P6SM FEW030 SCT250
     FM041600 33006KT P6SM VCTS SCT030CB SCT250
     FM042200 30007KT P6SM SCT040 BKN250=

USA.gov is the U.S. government's official web portal to all federal, state and local government web resources and services.